Time;durP1;ratioP1;P1;durP2;ratioP2;P2;SDS_P1;SDS_P2;PMS_P1;PMS_P2;Temp;Humidity;BMP_temperature;BMP_pressure;BME280_temperature;BME280_humidity;BME280_pressure;Samples;Min_cycle;Max_cycle;Signal;HPM_P1;HPM_P2
2023/06/30 00:01:31;;;;;;;5.13;3.17;;;15.90;99.90;;;;;;5099841;28;20569;-78
2023/06/30 00:03:58;;;;;;;2.77;2.57;;;15.90;99.90;;;;;;5109523;28;20449;-81
2023/06/30 00:06:25;;;;;;;2.20;2.03;;;15.90;99.90;;;;;;5105903;28;20497;-78
2023/06/30 00:08:52;;;;;;;2.67;2.47;;;16.00;99.90;;;;;;5103659;28;20867;-81
2023/06/30 00:11:23;;;;;;;1.93;1.83;;;15.90;99.90;;;;;;5108216;27;20541;-78
2023/06/30 00:13:52;;;;;;;2.67;2.47;;;16.00;99.90;;;;;;5108160;28;20458;-81
2023/06/30 00:16:19;;;;;;;2.33;2.23;;;16.00;99.90;;;;;;5103834;28;21655;-78
2023/06/30 00:18:46;;;;;;;4.03;2.23;;;15.90;99.90;;;;;;5103332;27;20510;-78
2023/06/30 00:21:13;;;;;;;3.00;2.80;;;15.90;99.90;;;;;;5108268;27;20501;-78
2023/06/30 00:23:40;;;;;;;2.57;2.40;;;15.80;99.90;;;;;;5110901;27;20568;-78
2023/06/30 00:26:07;;;;;;;1.53;1.43;;;15.80;99.90;;;;;;5106678;28;20568;-78
2023/06/30 00:28:36;;;;;;;3.53;3.23;;;15.90;99.90;;;;;;5107510;28;20478;-82
2023/06/30 00:31:03;;;;;;;2.17;2.07;;;15.70;99.90;;;;;;5105588;28;20464;-78
2023/06/30 00:33:30;;;;;;;2.80;2.60;;;15.50;99.90;;;;;;5105960;28;20440;-78
2023/06/30 00:35:57;;;;;;;3.20;2.97;;;15.60;99.90;;;;;;5099212;27;20532;-79
2023/06/30 00:38:24;;;;;;;2.83;2.60;;;15.70;99.90;;;;;;5115727;27;20463;-78
2023/06/30 00:40:51;;;;;;;3.10;2.80;;;15.80;99.90;;;;;;5107645;28;20444;-77
2023/06/30 00:43:18;;;;;;;4.60;4.30;;;15.70;99.90;;;;;;5099663;28;20466;-78
2023/06/30 00:45:46;;;;;;;4.30;3.70;;;15.70;99.90;;;;;;5103151;28;20517;-81
2023/06/30 00:48:13;;;;;;;3.77;3.47;;;15.70;99.90;;;;;;5102767;28;20574;-80
2023/06/30 00:50:40;;;;;;;3.83;3.57;;;15.70;99.90;;;;;;5104884;28;20488;-78
2023/06/30 00:53:07;;;;;;;3.07;2.87;;;15.70;99.90;;;;;;5108761;28;20486;-81
2023/06/30 00:55:35;;;;;;;4.23;3.17;;;15.70;99.90;;;;;;5105232;28;20463;-79
2023/06/30 00:58:02;;;;;;;5.33;3.17;;;15.50;99.90;;;;;;5102993;28;20520;-81
2023/06/30 01:00:30;;;;;;;2.80;2.70;;;15.40;99.90;;;;;;5107536;28;20872;-79
2023/06/30 01:03:06;;;;;;;2.30;2.20;;;15.30;99.90;;;;;;5098749;27;20471;-79
2023/06/30 01:05:40;;;;;;;3.07;2.87;;;15.40;99.90;;;;;;5107240;28;20505;-80
2023/06/30 01:08:14;;;;;;;3.33;3.13;;;15.30;99.90;;;;;;5104637;27;20464;-78
2023/06/30 01:10:43;;;;;;;3.00;2.70;;;15.10;99.90;;;;;;5108012;28;20449;-81
2023/06/30 01:13:11;;;;;;;2.83;2.63;;;15.10;99.90;;;;;;5103450;28;20479;-78
2023/06/30 01:15:39;;;;;;;2.80;2.50;;;15.20;99.90;;;;;;5103102;28;20443;-80
2023/06/30 01:18:09;;;;;;;2.70;2.47;;;15.10;99.90;;;;;;5103777;28;20511;-79
2023/06/30 01:20:40;;;;;;;8.93;3.60;;;15.00;99.90;;;;;;5107805;28;21171;-78
2023/06/30 01:23:11;;;;;;;2.87;2.60;;;15.00;99.90;;;;;;5105366;27;20538;-79
2023/06/30 01:25:39;;;;;;;3.00;2.80;;;15.00;99.90;;;;;;5100965;28;20493;-82
2023/06/30 01:28:07;;;;;;;2.67;2.47;;;15.00;99.90;;;;;;5103603;28;20450;-83
2023/06/30 01:30:34;;;;;;;3.37;3.17;;;14.90;99.90;;;;;;5106498;28;20442;-79
2023/06/30 01:33:01;;;;;;;3.37;3.07;;;14.90;99.90;;;;;;5093288;27;20486;-82
2023/06/30 01:35:30;;;;;;;5.70;2.73;;;14.90;99.90;;;;;;5102697;28;20436;-79
2023/06/30 01:37:59;;;;;;;7.37;2.87;;;14.90;99.90;;;;;;5099218;27;20510;-79
2023/06/30 01:40:26;;;;;;;3.77;3.47;;;15.00;99.90;;;;;;5102331;28;20447;-81
2023/06/30 01:42:56;;;;;;;4.13;3.73;;;14.90;99.90;;;;;;5105312;27;20438;-78
2023/06/30 01:45:25;;;;;;;2.87;2.63;;;14.70;99.90;;;;;;5105614;27;20522;-77
2023/06/30 01:47:52;;;;;;;2.87;2.67;;;14.60;99.90;;;;;;5100675;28;20460;-78
2023/06/30 01:50:20;;;;;;;3.40;3.20;;;14.40;99.90;;;;;;5104965;28;20529;-79
2023/06/30 01:52:48;;;;;;;3.30;3.10;;;14.40;99.90;;;;;;5103871;28;20435;-80
2023/06/30 01:55:16;;;;;;;3.83;3.63;;;14.30;99.90;;;;;;5097391;27;20487;-78
2023/06/30 01:57:43;;;;;;;4.00;3.70;;;14.20;99.90;;;;;;5101261;28;21137;-78
2023/06/30 02:00:10;;;;;;;3.63;3.40;;;14.30;99.90;;;;;;5102394;28;20455;-79
2023/06/30 02:02:37;;;;;;;2.47;2.30;;;14.30;99.90;;;;;;5110507;28;20458;-78
2023/06/30 02:05:05;;;;;;;3.30;3.10;;;14.30;99.90;;;;;;5109446;28;20439;-78
2023/06/30 02:07:32;;;;;;;3.13;2.83;;;14.30;99.90;;;;;;5103124;28;20940;-77
2023/06/30 02:10:00;;;;;;;3.23;2.90;;;14.30;99.90;;;;;;5107710;28;20443;-80
2023/06/30 02:12:27;;;;;;;3.17;2.97;;;14.30;99.90;;;;;;5103304;28;20473;-78
2023/06/30 02:14:54;;;;;;;3.60;3.40;;;14.40;99.90;;;;;;5105468;28;20491;-80
2023/06/30 02:17:31;;;;;;;3.70;3.40;;;14.40;99.90;;;;;;5098265;28;20514;-78
2023/06/30 02:19:58;;;;;;;4.10;3.17;;;14.30;99.90;;;;;;5103050;28;20442;-78
2023/06/30 02:22:25;;;;;;;3.27;3.07;;;14.30;99.90;;;;;;5102601;28;20496;-79
2023/06/30 02:24:53;;;;;;;4.37;3.97;;;14.20;99.90;;;;;;5109015;27;20482;-78
2023/06/30 02:27:22;;;;;;;5.33;3.37;;;14.40;99.90;;;;;;5099529;28;20492;-78
2023/06/30 02:29:49;;;;;;;3.60;3.40;;;14.40;99.90;;;;;;5105648;28;20471;-80
2023/06/30 02:32:16;;;;;;;4.67;3.90;;;14.50;99.90;;;;;;5100903;28;20511;-79
2023/06/30 02:34:43;;;;;;;4.07;3.77;;;14.60;99.90;;;;;;5105778;28;20535;-81
2023/06/30 02:37:09;;;;;;;4.23;3.93;;;14.60;99.90;;;;;;5100618;28;20510;-80
2023/06/30 02:39:36;;;;;;;4.20;3.90;;;14.60;99.90;;;;;;5100678;28;20527;-80
2023/06/30 02:42:04;;;;;;;5.90;3.83;;;14.80;99.90;;;;;;5104085;28;20594;-83
2023/06/30 02:44:32;;;;;;;3.60;3.40;;;14.90;99.90;;;;;;5096015;28;20540;-79
2023/06/30 02:47:02;;;;;;;3.63;3.43;;;14.90;99.90;;;;;;5102065;28;20458;-79
2023/06/30 02:49:29;;;;;;;4.03;3.80;;;14.90;99.90;;;;;;5097106;28;20947;-78
2023/06/30 02:51:56;;;;;;;3.77;3.47;;;14.90;99.90;;;;;;5101127;28;20447;-81
2023/06/30 02:54:23;;;;;;;4.13;3.83;;;14.90;99.90;;;;;;5104835;28;20454;-79
2023/06/30 02:56:50;;;;;;;4.00;3.63;;;14.90;99.90;;;;;;5099915;28;21267;-78
2023/06/30 02:59:17;;;;;;;3.50;3.20;;;14.80;99.90;;;;;;5105545;28;20450;-79
2023/06/30 03:01:45;;;;;;;3.20;3.00;;;14.70;99.90;;;;;;5100970;28;20449;-79
2023/06/30 03:04:13;;;;;;;5.17;4.10;;;14.70;99.90;;;;;;5104667;28;20721;-81
2023/06/30 03:06:40;;;;;;;4.07;3.77;;;14.70;99.90;;;;;;5105337;28;20552;-79
2023/06/30 03:09:08;;;;;;;4.10;3.80;;;14.70;99.90;;;;;;5102232;28;20479;-80
2023/06/30 03:11:35;;;;;;;3.83;3.53;;;14.70;99.90;;;;;;5101499;28;20452;-79
2023/06/30 03:14:02;;;;;;;3.57;3.30;;;14.70;99.90;;;;;;5101181;28;20528;-80
2023/06/30 03:16:29;;;;;;;4.10;3.70;;;14.80;99.90;;;;;;5094728;28;20938;-79
2023/06/30 03:18:58;;;;;;;4.40;3.40;;;14.80;99.90;;;;;;5101988;28;20454;-81
2023/06/30 03:21:25;;;;;;;4.63;4.00;;;14.80;99.90;;;;;;5097638;28;20558;-79
2023/06/30 03:23:52;;;;;;;7.60;2.93;;;14.70;99.90;;;;;;5102908;28;20946;-83
2023/06/30 03:26:19;;;;;;;3.20;2.90;;;14.80;99.90;;;;;;5104607;28;20528;-79
2023/06/30 03:28:46;;;;;;;3.00;2.80;;;14.70;99.90;;;;;;5108669;28;20458;-78
2023/06/30 03:31:13;;;;;;;3.07;2.87;;;14.80;99.90;;;;;;5114591;28;20479;-79
2023/06/30 03:33:40;;;;;;;2.90;2.80;;;14.80;99.90;;;;;;5105680;28;20535;-80
2023/06/30 03:36:09;;;;;;;2.97;2.77;;;14.90;99.90;;;;;;5109114;28;20438;-83
2023/06/30 03:38:36;;;;;;;3.67;3.37;;;14.90;99.90;;;;;;5103522;28;20493;-83
2023/06/30 03:41:02;;;;;;;3.57;3.30;;;15.00;99.90;;;;;;5098986;28;21077;-79
2023/06/30 03:43:31;;;;;;;3.50;3.30;;;15.00;99.90;;;;;;5107473;28;20590;-79
2023/06/30 03:45:58;;;;;;;4.53;3.10;;;14.90;99.90;;;;;;5107873;28;20457;-82
2023/06/30 03:48:25;;;;;;;2.93;2.70;;;14.90;99.90;;;;;;5101725;27;20529;-79
2023/06/30 03:50:54;;;;;;;3.33;3.13;;;14.90;99.90;;;;;;5106590;27;20539;-80
2023/06/30 03:53:23;;;;;;;3.60;3.40;;;14.90;99.90;;;;;;5102490;28;20534;-79
2023/06/30 03:55:50;;;;;;;2.70;2.60;;;14.80;99.90;;;;;;5110878;27;20534;-84
2023/06/30 03:58:16;;;;;;;3.70;3.40;;;14.90;99.90;;;;;;5103875;28;21166;-81
2023/06/30 04:00:43;;;;;;;5.17;3.00;;;15.00;99.90;;;;;;5108482;28;20478;-80
2023/06/30 04:03:10;;;;;;;3.10;2.90;;;15.00;99.90;;;;;;5100903;28;20540;-79
2023/06/30 04:05:37;;;;;;;3.30;2.93;;;15.00;99.90;;;;;;5105279;28;20544;-80
2023/06/30 04:08:05;;;;;;;9.80;3.00;;;15.00;99.90;;;;;;5106653;28;20527;-79
2023/06/30 04:10:33;;;;;;;4.90;4.50;;;15.10;99.90;;;;;;5109206;27;21245;-82
2023/06/30 04:13:00;;;;;;;2.47;2.37;;;15.00;99.90;;;;;;5101437;28;20829;-79
2023/06/30 04:15:27;;;;;;;3.43;2.90;;;15.10;99.90;;;;;;5105701;28;20945;-79
2023/06/30 04:17:54;;;;;;;2.57;2.37;;;15.10;99.90;;;;;;5101573;28;20474;-80
2023/06/30 04:20:21;;;;;;;3.10;2.80;;;15.20;99.90;;;;;;5105377;28;20463;-78
2023/06/30 04:22:48;;;;;;;7.30;3.13;;;15.40;99.90;;;;;;5109874;27;20459;-81
2023/06/30 04:25:15;;;;;;;4.10;2.80;;;15.50;99.90;;;;;;5107946;28;20476;-80
2023/06/30 04:27:44;;;;;;;3.50;3.00;;;15.70;99.90;;;;;;5102942;28;20555;-79
2023/06/30 04:30:12;;;;;;;3.50;3.23;;;15.90;99.90;;;;;;5098809;28;20586;-79
2023/06/30 04:32:39;;;;;;;4.23;3.87;;;16.10;99.90;;;;;;5103041;28;20455;-81
2023/06/30 04:35:07;;;;;;;4.10;3.87;;;16.30;99.90;;;;;;5104516;28;20474;-79
2023/06/30 04:37:40;;;;;;;6.60;4.03;;;16.30;99.90;;;;;;5104813;28;20488;-79
2023/06/30 04:40:08;;;;;;;5.97;4.30;;;16.30;99.90;;;;;;5105778;27;20546;-80
2023/06/30 04:42:36;;;;;;;4.40;4.10;;;16.30;99.90;;;;;;5108795;27;21160;-79
2023/06/30 04:45:05;;;;;;;4.87;4.60;;;16.30;99.90;;;;;;5109940;27;20478;-79
2023/06/30 04:47:32;;;;;;;4.20;3.90;;;16.30;99.90;;;;;;5108015;27;20453;-78
2023/06/30 04:50:01;;;;;;;3.70;3.50;;;16.30;99.90;;;;;;5100961;28;20965;-78
2023/06/30 04:52:28;;;;;;;4.00;3.70;;;16.20;99.90;;;;;;5106232;28;20459;-79
2023/06/30 04:54:56;;;;;;;4.33;2.87;;;16.40;99.90;;;;;;5119493;27;20489;-79
2023/06/30 04:57:23;;;;;;;3.40;3.10;;;16.30;99.90;;;;;;5108998;28;20482;-79
2023/06/30 04:59:51;;;;;;;3.57;3.13;;;16.40;99.90;;;;;;5110093;28;20494;-79
2023/06/30 05:02:19;;;;;;;4.63;3.07;;;16.60;99.90;;;;;;5109446;27;20467;-82
2023/06/30 05:04:47;;;;;;;3.43;3.13;;;16.80;99.90;;;;;;5103154;28;20538;-79
2023/06/30 05:07:14;;;;;;;2.87;2.67;;;17.10;99.90;;;;;;5105734;27;20979;-80
2023/06/30 05:09:41;;;;;;;4.27;2.73;;;17.20;99.90;;;;;;5101290;27;20502;-83
2023/06/30 05:12:09;;;;;;;2.93;2.83;;;17.40;99.90;;;;;;5107308;28;20455;-80
2023/06/30 05:14:36;;;;;;;2.70;2.50;;;17.60;99.90;;;;;;5104422;28;21075;-78
2023/06/30 05:17:03;;;;;;;3.77;3.07;;;17.70;99.90;;;;;;5102050;28;20540;-82
2023/06/30 05:19:31;;;;;;;4.80;4.40;;;18.00;99.90;;;;;;5102018;28;20494;-79
2023/06/30 05:21:58;;;;;;;3.77;3.57;;;18.00;99.90;;;;;;5107719;27;20473;-79
2023/06/30 05:24:25;;;;;;;6.80;3.23;;;17.90;99.90;;;;;;5105372;27;20474;-79
2023/06/30 05:26:53;;;;;;;6.10;3.37;;;17.80;99.90;;;;;;5060673;28;20558;-79
2023/06/30 05:29:20;;;;;;;4.87;4.17;;;18.00;99.90;;;;;;5066293;28;20643;-82
2023/06/30 05:31:47;;;;;;;4.37;3.93;;;18.10;99.90;;;;;;5063250;28;21200;-80
2023/06/30 05:34:15;;;;;;;3.63;3.47;;;18.00;99.90;;;;;;5055411;28;20489;-80
2023/06/30 05:36:45;;;;;;;5.13;4.77;;;18.10;99.90;;;;;;5066041;28;20535;-78
2023/06/30 05:39:12;;;;;;;4.90;4.37;;;18.20;99.90;;;;;;5064777;28;20494;-79
2023/06/30 05:41:39;;;;;;;10.13;3.77;;;18.30;99.90;;;;;;5059799;28;20463;-80
2023/06/30 05:44:07;;;;;;;8.63;5.23;;;18.30;99.90;;;;;;5062579;28;20824;-79
2023/06/30 05:46:34;;;;;;;8.43;3.90;;;18.20;99.90;;;;;;5061396;28;20465;-79
2023/06/30 05:49:05;;;;;;;7.00;4.50;;;18.40;99.90;;;;;;5058795;28;20485;-78
2023/06/30 05:51:32;;;;;;;4.73;4.27;;;18.80;99.90;;;;;;5063183;28;20463;-78
2023/06/30 05:54:00;;;;;;;4.43;3.97;;;19.00;99.90;;;;;;5061484;28;20492;-78
2023/06/30 05:56:28;;;;;;;7.87;3.70;;;19.10;99.90;;;;;;5061038;28;20462;-80
2023/06/30 05:58:55;;;;;;;4.23;3.63;;;19.10;99.90;;;;;;5049572;28;20488;-79
2023/06/30 06:01:22;;;;;;;5.63;4.70;;;19.10;99.90;;;;;;5060638;28;20493;-82
2023/06/30 06:03:49;;;;;;;2.93;2.70;;;19.20;99.90;;;;;;5054224;28;20495;-79
2023/06/30 06:06:16;;;;;;;3.90;3.70;;;19.40;99.90;;;;;;5058613;28;20485;-80
2023/06/30 06:08:46;;;;;;;3.87;3.57;;;19.40;99.90;;;;;;5059841;28;20459;-78
2023/06/30 06:11:15;;;;;;;3.57;3.30;;;19.60;99.90;;;;;;5057316;28;21421;-78
2023/06/30 06:13:41;;;;;;;4.43;3.13;;;19.50;99.90;;;;;;5059655;28;20841;-79
2023/06/30 06:16:09;;;;;;;3.40;3.20;;;19.60;99.90;;;;;;5060755;28;20813;-81
2023/06/30 06:18:36;;;;;;;4.47;3.90;;;19.80;99.90;;;;;;5060763;28;20524;-79
2023/06/30 06:21:04;;;;;;;2.70;2.50;;;20.10;99.90;;;;;;5073190;28;20512;-79
2023/06/30 06:23:31;;;;;;;3.40;3.20;;;20.40;98.90;;;;;;5084342;28;20813;-79
2023/06/30 06:25:59;;;;;;;3.27;3.07;;;20.40;96.90;;;;;;5088790;28;20489;-76
2023/06/30 06:28:27;;;;;;;5.30;3.57;;;20.30;97.90;;;;;;5108681;28;20553;-81
2023/06/30 06:30:54;;;;;;;3.57;3.30;;;20.60;98.50;;;;;;5105635;28;20482;-79
2023/06/30 06:33:21;;;;;;;3.93;3.57;;;20.80;98.00;;;;;;5105538;28;20462;-79
2023/06/30 06:35:50;;;;;;;3.97;3.77;;;20.90;96.30;;;;;;5104583;28;20491;-80
2023/06/30 06:38:18;;;;;;;3.73;3.53;;;20.80;96.60;;;;;;5102120;28;20483;-79
2023/06/30 06:40:45;;;;;;;3.40;3.10;;;20.80;96.60;;;;;;5097749;28;20545;-79
2023/06/30 06:43:12;;;;;;;3.00;2.80;;;21.00;94.30;;;;;;5100659;28;20541;-79
2023/06/30 06:45:41;;;;;;;4.07;3.03;;;21.30;94.60;;;;;;5105259;28;20491;-79
2023/06/30 06:48:23;;;;;;;2.97;2.87;;;21.30;95.30;;;;;;5101362;28;20451;-80
2023/06/30 06:50:51;;;;;;;3.57;2.93;;;21.60;94.50;;;;;;5103060;28;20454;-78
2023/06/30 06:53:20;;;;;;;5.83;3.70;;;21.50;94.90;;;;;;5101555;28;20532;-81
2023/06/30 06:55:48;;;;;;;4.80;3.40;;;21.60;95.50;;;;;;5100809;28;20548;-79
2023/06/30 06:58:15;;;;;;;4.60;3.47;;;21.70;95.90;;;;;;5103723;28;20514;-79
2023/06/30 07:00:45;;;;;;;3.37;2.90;;;21.90;96.40;;;;;;5103334;28;20471;-79
2023/06/30 07:03:12;;;;;;;5.03;2.87;;;22.00;96.00;;;;;;5101936;28;20443;-79
2023/06/30 07:05:40;;;;;;;3.60;2.60;;;22.20;97.10;;;;;;5095591;28;20818;-77
2023/06/30 07:08:07;;;;;;;5.00;2.67;;;22.30;96.70;;;;;;5100736;28;20451;-77
2023/06/30 07:10:34;;;;;;;3.20;2.87;;;22.00;95.80;;;;;;5102757;28;20474;-78
2023/06/30 07:13:01;;;;;;;2.80;2.60;;;21.80;94.60;;;;;;5102779;28;20462;-77
2023/06/30 07:15:28;;;;;;;5.47;3.60;;;22.10;94.50;;;;;;5100372;28;21801;-77
2023/06/30 07:17:57;;;;;;;3.90;3.30;;;22.20;94.10;;;;;;5101514;27;20518;-80
2023/06/30 07:20:24;;;;;;;3.83;2.70;;;22.40;95.40;;;;;;5105986;28;20459;-82
2023/06/30 07:22:51;;;;;;;4.23;2.70;;;22.30;94.50;;;;;;5107571;28;20507;-77
2023/06/30 07:25:18;;;;;;;3.43;3.13;;;22.50;94.30;;;;;;5100269;27;20496;-77
2023/06/30 07:27:52;;;;;;;3.57;2.73;;;22.70;93.90;;;;;;5094355;28;20522;-77
2023/06/30 07:30:21;;;;;;;7.90;3.50;;;22.50;94.30;;;;;;5103904;28;20455;-77
2023/06/30 07:32:49;;;;;;;3.43;3.13;;;22.80;94.50;;;;;;5108000;28;20494;-79
2023/06/30 07:35:18;;;;;;;8.00;2.93;;;23.20;92.80;;;;;;5104628;27;20459;-77
2023/06/30 07:37:45;;;;;;;4.73;3.50;;;22.70;93.90;;;;;;5103874;27;20474;-80
2023/06/30 07:40:13;;;;;;;3.30;3.10;;;22.40;94.10;;;;;;5103181;28;20522;-81
2023/06/30 07:42:40;;;;;;;4.80;3.30;;;22.50;92.60;;;;;;5105360;28;21065;-81
2023/06/30 07:45:09;;;;;;;7.33;3.73;;;22.80;95.50;;;;;;5108512;28;20490;-76
2023/06/30 07:47:36;;;;;;;4.17;3.07;;;23.20;94.10;;;;;;5114491;28;20466;-78
2023/06/30 07:50:09;;;;;;;4.90;3.10;;;23.30;90.90;;;;;;5116383;28;20469;-76
2023/06/30 07:52:37;;;;;;;6.27;3.10;;;23.60;90.10;;;;;;5112540;27;20892;-77
2023/06/30 07:55:06;;;;;;;2.50;2.20;;;23.40;90.30;;;;;;5097645;27;20467;-80
2023/06/30 07:57:33;;;;;;;5.10;3.27;;;23.40;90.90;;;;;;5095723;28;21007;-77
2023/06/30 08:00:00;;;;;;;3.00;2.80;;;23.60;90.00;;;;;;5101299;28;21064;-78
2023/06/30 08:02:28;;;;;;;3.50;2.70;;;23.70;88.80;;;;;;5103203;27;20483;-77
2023/06/30 08:04:55;;;;;;;2.97;2.47;;;23.90;89.10;;;;;;5096541;27;20460;-77
2023/06/30 08:07:21;;;;;;;4.80;2.63;;;23.80;89.00;;;;;;5097324;27;20486;-77
2023/06/30 08:09:50;;;;;;;4.43;3.10;;;23.90;84.90;;;;;;5102780;28;20488;-77
2023/06/30 08:12:17;;;;;;;2.90;2.77;;;23.90;83.40;;;;;;5097363;28;20483;-77
2023/06/30 08:14:44;;;;;;;4.17;2.50;;;23.80;80.40;;;;;;5101663;27;20453;-77
2023/06/30 08:17:11;;;;;;;2.47;2.27;;;24.10;80.20;;;;;;5104939;28;20560;-77
2023/06/30 08:19:41;;;;;;;3.37;3.17;;;23.90;79.30;;;;;;5098354;28;20519;-79
2023/06/30 08:22:08;;;;;;;3.13;2.80;;;24.00;75.50;;;;;;5100212;28;20445;-77
2023/06/30 08:24:35;;;;;;;3.43;2.83;;;23.90;74.80;;;;;;5105437;27;20920;-78
2023/06/30 08:27:05;;;;;;;3.20;2.47;;;23.90;72.50;;;;;;5099217;28;20481;-77
2023/06/30 08:29:32;;;;;;;2.20;2.10;;;24.40;74.50;;;;;;5102682;28;20480;-77
2023/06/30 08:31:59;;;;;;;3.70;2.23;;;24.30;68.80;;;;;;5102876;27;20478;-78
2023/06/30 08:34:26;;;;;;;2.33;2.17;;;24.80;68.00;;;;;;5099664;28;20622;-80
2023/06/30 08:36:53;;;;;;;4.30;2.70;;;25.10;75.80;;;;;;5095864;28;20495;-77
2023/06/30 08:39:20;;;;;;;3.20;3.00;;;24.90;65.80;;;;;;5101966;28;20484;-77
2023/06/30 08:41:50;;;;;;;4.10;2.63;;;24.50;66.20;;;;;;5099635;28;20522;-77
2023/06/30 08:44:22;;;;;;;3.43;2.70;;;24.80;69.20;;;;;;5099820;28;21137;-80
2023/06/30 08:46:50;;;;;;;3.00;2.70;;;24.90;69.50;;;;;;5098715;28;20466;-80
2023/06/30 08:49:17;;;;;;;3.70;2.90;;;25.20;76.60;;;;;;5095133;27;21042;-78
2023/06/30 08:51:46;;;;;;;2.60;2.27;;;25.10;73.40;;;;;;5096344;28;20463;-79
2023/06/30 08:54:16;;;;;;;6.60;3.80;;;25.40;79.00;;;;;;5097762;28;20463;-78
2023/06/30 08:56:43;;;;;;;3.03;2.83;;;25.50;70.10;;;;;;5100150;28;20493;-78
2023/06/30 08:59:10;;;;;;;3.20;2.90;;;25.70;68.40;;;;;;5097312;28;20515;-78
2023/06/30 09:01:39;;;;;;;4.37;3.93;;;25.40;68.60;;;;;;5097736;28;21033;-80
2023/06/30 09:04:07;;;;;;;4.07;3.77;;;25.50;66.30;;;;;;5101146;28;20466;-78
2023/06/30 09:06:38;;;;;;;2.70;2.50;;;25.30;68.00;;;;;;5101087;28;20471;-79
2023/06/30 09:09:10;;;;;;;4.53;2.60;;;25.30;63.50;;;;;;5101641;28;20550;-79
2023/06/30 09:11:39;;;;;;;3.50;2.87;;;25.90;70.10;;;;;;5093746;28;20593;-77
2023/06/30 09:14:08;;;;;;;4.73;4.00;;;26.20;61.30;;;;;;5119097;28;20454;-78
2023/06/30 09:16:35;;;;;;;2.30;2.13;;;26.30;63.30;;;;;;5103018;27;20508;-79
2023/06/30 09:19:04;;;;;;;4.23;3.90;;;26.20;61.70;;;;;;5110399;28;21159;-78
2023/06/30 09:21:31;;;;;;;2.83;2.70;;;26.00;71.10;;;;;;5109856;27;20554;-78
2023/06/30 09:23:58;;;;;;;3.67;3.33;;;26.00;70.60;;;;;;5101669;27;21161;-80
2023/06/30 09:26:29;;;;;;;3.93;2.63;;;26.10;62.70;;;;;;5104406;27;20567;-78
2023/06/30 09:28:56;;;;;;;3.97;2.67;;;26.10;62.00;;;;;;5100162;27;20454;-78
2023/06/30 09:31:29;;;;;;;6.50;3.10;;;26.40;60.70;;;;;;5105410;28;20502;-81
2023/06/30 09:34:10;;;;;;;3.83;3.63;;;26.10;66.80;;;;;;5100149;27;20554;-78
2023/06/30 09:36:38;;;;;;;4.20;2.90;;;26.10;60.50;;;;;;5102548;28;20458;-78
2023/06/30 09:39:08;;;;;;;2.03;1.90;;;26.50;68.10;;;;;;5098851;28;20558;-79
2023/06/30 09:41:35;;;;;;;2.80;2.63;;;27.00;62.50;;;;;;5098689;28;20467;-81
2023/06/30 09:44:04;;;;;;;2.27;2.07;;;27.30;60.60;;;;;;5103872;28;20474;-80
2023/06/30 09:46:31;;;;;;;3.33;3.03;;;27.10;55.80;;;;;;5105108;28;20451;-78
2023/06/30 09:49:00;;;;;;;3.23;2.77;;;27.20;58.10;;;;;;5103310;27;20447;-78
2023/06/30 09:51:31;;;;;;;3.13;2.30;;;27.40;59.50;;;;;;5104962;28;20550;-79
2023/06/30 09:53:58;;;;;;;2.60;2.27;;;27.30;56.40;;;;;;5102349;28;20480;-79
2023/06/30 09:56:26;;;;;;;3.20;2.60;;;27.00;58.20;;;;;;5103714;28;20484;-80
2023/06/30 09:58:57;;;;;;;2.37;2.20;;;27.40;55.40;;;;;;5104888;27;20487;-81
2023/06/30 10:01:24;;;;;;;4.37;2.17;;;27.30;54.50;;;;;;5105978;28;20443;-78
2023/06/30 10:03:52;;;;;;;3.53;2.50;;;27.10;55.00;;;;;;5099091;28;20521;-78
2023/06/30 10:06:23;;;;;;;5.03;3.07;;;27.40;52.80;;;;;;5099631;28;20466;-78
2023/06/30 10:08:52;;;;;;;3.67;2.67;;;27.40;53.40;;;;;;5103612;28;20468;-81
2023/06/30 10:11:22;;;;;;;2.83;1.60;;;27.40;52.40;;;;;;5104313;28;20476;-79
2023/06/30 10:13:50;;;;;;;1.80;1.70;;;27.60;48.80;;;;;;5096047;27;20492;-79
2023/06/30 10:16:20;;;;;;;7.30;2.23;;;27.60;47.80;;;;;;5099157;28;20517;-78
2023/06/30 10:18:50;;;;;;;2.30;1.87;;;27.60;48.60;;;;;;5100807;28;21215;-78
2023/06/30 10:21:17;;;;;;;2.80;1.80;;;27.60;46.50;;;;;;5104755;27;21239;-80
2023/06/30 10:23:46;;;;;;;2.50;2.30;;;27.80;44.80;;;;;;5106715;27;20530;-81
2023/06/30 10:26:18;;;;;;;3.23;2.03;;;27.80;47.20;;;;;;5100376;28;20528;-79
2023/06/30 10:28:47;;;;;;;2.60;2.40;;;27.80;47.50;;;;;;5102743;28;20493;-78
2023/06/30 10:31:14;;;;;;;2.30;1.57;;;28.00;44.50;;;;;;5104197;28;20510;-79
2023/06/30 10:33:41;;;;;;;2.40;1.67;;;27.80;41.90;;;;;;5100462;28;20489;-79
2023/06/30 10:36:09;;;;;;;2.43;1.93;;;27.80;44.00;;;;;;5102453;28;20502;-78
2023/06/30 10:38:37;;;;;;;1.57;1.47;;;27.90;40.70;;;;;;5115287;28;20457;-82
2023/06/30 10:41:17;;;;;;;1.90;1.37;;;28.10;41.20;;;;;;5105634;28;20564;-78
2023/06/30 10:44:06;;;;;;;1.93;1.70;;;28.50;40.10;;;;;;5101912;28;20497;-78
2023/06/30 10:46:50;;;;;;;1.30;1.20;;;28.40;37.80;;;;;;5100639;28;20556;-77
2023/06/30 10:49:18;;;;;;;8.00;1.70;;;28.30;37.40;;;;;;5101358;28;20556;-79
2023/06/30 10:51:47;;;;;;;2.20;1.20;;;28.60;40.00;;;;;;5106378;28;20541;-78
2023/06/30 10:54:21;;;;;;;2.20;1.70;;;28.80;39.40;;;;;;5108806;28;20456;-79
2023/06/30 10:56:50;;;;;;;1.20;1.10;;;28.90;35.50;;;;;;5103569;28;20537;-77
2023/06/30 10:59:22;;;;;;;1.47;1.40;;;29.00;35.70;;;;;;5107341;28;20568;-78
2023/06/30 11:02:10;;;;;;;1.90;1.27;;;29.00;38.30;;;;;;5103184;28;20462;-80
2023/06/30 11:04:37;;;;;;;1.77;1.50;;;29.40;33.90;;;;;;5102234;28;20454;-79
2023/06/30 11:07:06;;;;;;;1.60;1.50;;;29.70;34.10;;;;;;5105601;28;20531;-78
2023/06/30 11:09:59;;;;;;;1.10;1.10;;;30.10;30.90;;;;;;5104210;28;20466;-80
2023/06/30 11:12:28;;;;;;;1.50;1.40;;;29.50;29.90;;;;;;5105518;27;20469;-78
2023/06/30 11:14:57;;;;;;;1.67;1.10;;;29.10;31.50;;;;;;5106355;28;20462;-79
2023/06/30 11:17:24;;;;;;;1.73;1.63;;;29.50;29.40;;;;;;5101828;28;20495;-78
2023/06/30 11:20:11;;;;;;;1.40;1.30;;;29.60;32.40;;;;;;5104476;28;20490;-80
2023/06/30 11:22:39;;;;;;;1.53;1.20;;;29.20;30.20;;;;;;5104051;27;20497;-77
2023/06/30 11:25:10;;;;;;;1.37;1.23;;;29.40;34.40;;;;;;5104081;27;21228;-78
2023/06/30 11:27:39;;;;;;;1.13;0.90;;;29.60;27.80;;;;;;5103548;27;20548;-78
2023/06/30 11:30:07;;;;;;;4.70;1.30;;;29.30;27.50;;;;;;5104941;28;20458;-79
2023/06/30 11:32:37;;;;;;;4.40;1.37;;;29.70;28.10;;;;;;5100100;28;20491;-80
2023/06/30 11:35:07;;;;;;;0.80;0.80;;;29.70;23.80;;;;;;5102127;28;20459;-78
2023/06/30 11:37:36;;;;;;;1.53;1.00;;;29.70;21.50;;;;;;5106117;27;20466;-81
2023/06/30 11:40:04;;;;;;;3.53;0.87;;;29.50;22.80;;;;;;5103726;28;20536;-78
2023/06/30 11:42:32;;;;;;;1.90;1.80;;;29.80;22.60;;;;;;5101568;28;20530;-80
2023/06/30 11:45:00;;;;;;;1.97;1.13;;;30.10;21.80;;;;;;5102698;28;20462;-77
2023/06/30 11:47:27;;;;;;;2.10;1.00;;;30.00;21.00;;;;;;5104410;28;20494;-78
2023/06/30 11:49:54;;;;;;;2.50;0.97;;;30.10;19.80;;;;;;5105956;27;21057;-79
2023/06/30 11:52:22;;;;;;;0.87;0.87;;;29.90;23.90;;;;;;5099360;28;20981;-78
2023/06/30 11:54:49;;;;;;;2.17;0.90;;;29.80;22.00;;;;;;5101516;28;20527;-78
2023/06/30 11:57:16;;;;;;;1.30;1.20;;;29.90;21.00;;;;;;5102435;28;20984;-78
2023/06/30 11:59:43;;;;;;;1.63;1.33;;;29.90;22.60;;;;;;5104971;28;20514;-78
2023/06/30 12:02:12;;;;;;;1.50;1.10;;;29.90;23.20;;;;;;5110371;27;20496;-77
2023/06/30 12:04:47;;;;;;;2.10;1.70;;;29.90;22.70;;;;;;5115893;27;20474;-78
2023/06/30 12:07:16;;;;;;;1.30;1.20;;;29.90;24.50;;;;;;5102974;28;20464;-78
2023/06/30 12:09:43;;;;;;;2.00;1.00;;;30.00;23.10;;;;;;5111724;28;20527;-79
2023/06/30 12:12:10;;;;;;;2.90;0.93;;;30.10;24.30;;;;;;5105326;27;20490;-78
2023/06/30 12:14:41;;;;;;;2.83;1.33;;;29.80;24.10;;;;;;5103165;28;20550;-78
2023/06/30 12:17:12;;;;;;;3.53;1.57;;;29.70;25.10;;;;;;5106169;28;20490;-78
2023/06/30 12:19:45;;;;;;;1.20;1.00;;;30.00;26.00;;;;;;5107409;28;20482;-80
2023/06/30 12:22:12;;;;;;;1.13;1.13;;;30.10;23.90;;;;;;5103023;28;20474;-77
2023/06/30 12:24:42;;;;;;;1.97;1.27;;;29.80;23.90;;;;;;5102851;28;20578;-78
2023/06/30 12:27:10;;;;;;;1.87;1.77;;;29.30;25.20;;;;;;5103928;28;20446;-78
2023/06/30 12:29:37;;;;;;;1.47;1.37;;;29.80;25.50;;;;;;5104846;28;20498;-78
2023/06/30 12:32:13;;;;;;;3.90;1.87;;;30.20;23.60;;;;;;5105359;28;20482;-78
2023/06/30 12:34:42;;;;;;;1.17;1.10;;;30.10;23.80;;;;;;5104875;27;20454;-78
2023/06/30 12:37:09;;;;;;;1.50;1.20;;;30.00;25.10;;;;;;5103143;28;20451;-78
2023/06/30 12:39:36;;;;;;;2.03;1.20;;;30.40;24.10;;;;;;5102308;28;20921;-78
2023/06/30 12:42:03;;;;;;;1.20;1.07;;;30.40;24.70;;;;;;5104342;28;20470;-80
2023/06/30 12:44:31;;;;;;;1.33;1.20;;;30.60;23.30;;;;;;5105509;28;20458;-80
2023/06/30 12:47:03;;;;;;;1.30;1.20;;;30.70;22.20;;;;;;5106616;28;20455;-78
2023/06/30 12:49:29;;;;;;;1.20;1.10;;;30.30;21.20;;;;;;5104204;27;20511;-78
2023/06/30 12:51:59;;;;;;;1.57;1.00;;;30.30;21.50;;;;;;5108482;27;20486;-80
2023/06/30 12:54:26;;;;;;;4.83;1.40;;;30.60;20.40;;;;;;5104155;28;20458;-76